Cabool, MO

6:07 PM CDT on March 26, 2015 (GMT -0500)
Baxter County Regional | | Change Station
CLOSE
Current Station
Airport
Location: Mountain Home,
Elevation: 925 ft
Nearby Weather Stations

Elev 925 ft 36.37 °N, 92.47 °W | Updated 14 minutes ago

Clear
Clear
54 °F
Feels Like 54 °F
N
10
Wind Variable Wind from North
Gusts 17 mph

Today
High -- | Low -- °F
--% Chance of Precip.
Yesterday
High -- | Low -- °F
Precip. -- in
7:03 AM 7:25 PM
Waxing Crescent, 46% visible
Pressure 30.03 in
Visibility 10.0 miles
Clouds Clear
Dew Point 26 °F
Humidity 34%
Rainfall 0.52 in
Snow Depth Not available.
UV 1 out of 12
Pollen 6.40 out of 12
Air Quality Not available.
Flu Activity Not available.
METAR KBPK 262253Z AUTO 35009G15KT 330V040 10SM CLR 12/M03 A3003 RMK AO2 SLP169 T01221033

More Conditions Fewer Conditions

Pressure 30.03 in
Visibility 10.0 miles
Clouds Clear
Dew Point 26 °F
Humidity 34%
Rainfall 0.52 in
Snow Depth Not available.
UV 1 out of 12
Pollen 6.40 out of 12
Air Quality Not available.
Flu Activity Not available.
METAR KBPK 262253Z AUTO 35009G15KT 330V040 10SM CLR 12/M03 A3003 RMK AO2 SLP169 T01221033

More Conditions Fewer Conditions

10-Day Weather Forecast

Almanac

Astronomy

Mar. 26, 2015 Rise Set
Actual Time
Civil Twilight
Nautical Twilight
Astronomical Twilight
Moon
Length of Visible Light
Length of Day
Tomorrow will be .
, % of the Moon is Illuminated

Today's Extremes

State Highs State Lows

Community

WunderPhotos

Upload Photos

1,808,632 photos uploaded!

WunderBlogs® & News

Nearby

Air Quality

  Air Quality AQ Index Pollutant
Not available.

Snow Depth

Station Depth Elevation

Earthquake Activity

City Distance Mag. Time & Date
Minimum magnitude displayed is 2.5.

Coastal Water Temperatures

Place Temperature

Stations

Nearby Weather Stations

Station Location Temp. Windchill Dew Point Humidity Wind Precip. Elev Updated Type